createdAt,value
2022-09-11T00:00:31.710Z,100742.00
2022-09-11T00:05:39.241Z,100749.19
2022-09-11T00:10:43.281Z,100752.53
2022-09-11T00:15:49.941Z,100755.00
2022-09-11T00:20:55.093Z,100756.00
2022-09-11T00:26:02.315Z,100753.00
2022-09-11T00:31:08.944Z,100760.47
2022-09-11T00:36:15.722Z,100759.00
2022-09-11T00:41:24.192Z,100760.47
2022-09-11T00:46:37.149Z,100759.63
2022-09-11T00:51:41.686Z,100764.00
2022-09-11T00:56:45.249Z,100761.31
2022-09-11T01:01:50.220Z,100769.53
2022-09-11T01:06:56.542Z,100760.69
2022-09-11T01:12:06.655Z,100768.97
2022-09-11T01:17:20.372Z,100766.94
2022-09-11T01:22:39.643Z,100773.97
2022-09-11T01:27:46.917Z,100770.78
2022-09-11T01:33:06.186Z,100773.91
2022-09-11T01:38:15.899Z,100780.91
2022-09-11T01:43:24.376Z,100786.63
2022-09-11T01:48:31.865Z,100784.84
2022-09-11T01:53:38.788Z,100787.50
2022-09-11T01:58:44.538Z,100804.47
2022-09-11T02:03:50.769Z,100805.97
2022-09-11T02:08:59.785Z,100794.75
2022-09-11T02:14:10.367Z,100813.06
2022-09-11T02:19:17.028Z,100820.88
2022-09-11T02:24:22.672Z,100804.06
2022-09-11T02:29:27.495Z,100810.69
2022-09-11T02:34:34.226Z,100821.59
2022-09-11T02:39:49.778Z,100833.97
2022-09-11T02:45:00.264Z,100828.09
2022-09-11T02:50:10.265Z,100834.88
2022-09-11T02:55:20.021Z,100838.53
2022-09-11T03:00:24.865Z,100848.41
2022-09-11T03:05:29.427Z,100854.53
2022-09-11T03:10:32.881Z,100856.06
2022-09-11T03:15:37.723Z,100854.81
2022-09-11T03:20:41.519Z,100868.38
2022-09-11T03:25:45.259Z,100869.53
2022-09-11T03:30:52.727Z,100865.56
2022-09-11T03:35:56.312Z,100878.34
2022-09-11T03:40:59.794Z,100879.16
2022-09-11T03:46:05.218Z,100893.63
2022-09-11T03:51:08.967Z,100902.00
2022-09-11T03:56:14.978Z,100893.72
2022-09-11T04:01:25.453Z,100892.84
2022-09-11T04:06:29.211Z,100887.56
2022-09-11T04:11:37.445Z,100894.09
2022-09-11T04:16:44.268Z,100899.09
2022-09-11T04:21:47.905Z,100889.75
2022-09-11T04:26:53.130Z,100890.91
2022-09-11T04:32:02.878Z,100893.41
2022-09-11T04:37:11.519Z,100897.09
2022-09-11T04:42:16.775Z,100902.56
2022-09-11T04:47:22.503Z,100910.41
2022-09-11T04:52:26.787Z,100902.84
2022-09-11T04:57:31.144Z,100914.84
2022-09-11T05:02:37.594Z,100917.09
2022-09-11T05:07:41.673Z,100937.19
2022-09-11T05:12:47.045Z,100934.88
2022-09-11T05:17:52.245Z,100940.53
2022-09-11T05:22:58.419Z,100943.69
2022-09-11T05:28:01.946Z,100948.34
2022-09-11T05:33:07.668Z,100956.69
2022-09-11T05:38:11.822Z,100964.16
2022-09-11T05:43:16.515Z,100974.38
2022-09-11T05:48:21.416Z,100972.38
2022-09-11T05:53:26.763Z,100979.59
2022-09-11T05:58:32.585Z,100984.69
2022-09-11T06:03:38.675Z,100998.78
2022-09-11T06:08:44.052Z,101001.50
2022-09-11T06:13:48.288Z,101007.38
2022-09-11T06:18:54.673Z,101021.69
2022-09-11T06:23:58.720Z,101029.75
2022-09-11T06:29:03.126Z,101024.97
2022-09-11T06:34:09.113Z,101035.59
2022-09-11T06:39:12.673Z,101043.91
2022-09-11T06:44:17.222Z,101050.84
2022-09-11T06:49:22.298Z,101044.66
2022-09-11T06:54:44.494Z,101052.28
2022-09-11T06:59:52.481Z,101045.72
2022-09-11T07:04:58.618Z,101050.34
2022-09-11T07:10:07.081Z,101049.34
2022-09-11T07:15:11.851Z,101054.19
2022-09-11T07:20:18.500Z,101058.56
2022-09-11T07:25:22.079Z,101064.19
2022-09-11T07:30:26.157Z,101066.03
2022-09-11T07:35:37.014Z,101051.75
2022-09-11T07:40:40.621Z,101064.34
2022-09-11T07:45:44.231Z,101066.28
2022-09-11T07:50:58.054Z,101062.22
2022-09-11T07:56:04.265Z,101071.88
2022-09-11T08:01:08.985Z,101080.72
2022-09-11T08:06:20.155Z,101075.13
2022-09-11T08:11:28.838Z,101088.84
2022-09-11T08:16:32.390Z,101098.78
2022-09-11T08:21:38.515Z,101105.75
2022-09-11T08:26:44.663Z,101100.44
2022-09-11T08:31:52.180Z,101113.16
2022-09-11T08:36:57.179Z,101105.16
2022-09-11T08:42:05.015Z,101116.44
2022-09-11T08:47:11.312Z,101120.34
2022-09-11T08:52:17.177Z,101109.94
2022-09-11T08:57:25.302Z,101113.25
2022-09-11T09:02:45.683Z,101117.69
2022-09-11T09:08:02.514Z,101128.97
2022-09-11T09:13:15.436Z,101133.44
2022-09-11T09:18:26.844Z,101127.78
2022-09-11T09:23:34.204Z,101124.66
2022-09-11T09:28:43.298Z,101141.88
2022-09-11T09:33:49.990Z,101144.16
2022-09-11T09:38:55.065Z,101138.41
2022-09-11T09:44:04.940Z,101144.59
2022-09-11T09:49:10.244Z,101145.25
2022-09-11T09:54:17.009Z,101142.25
2022-09-11T09:59:23.326Z,101141.75
2022-09-11T10:04:27.959Z,101140.16
2022-09-11T10:09:32.769Z,101145.53
2022-09-11T10:14:51.544Z,101142.91
2022-09-11T10:19:57.042Z,101147.66
2022-09-11T10:25:11.372Z,101136.63
2022-09-11T10:30:26.926Z,101148.28
2022-09-11T10:35:31.739Z,101142.69
2022-09-11T10:40:38.865Z,101145.81
2022-09-11T10:45:42.339Z,101157.94
2022-09-11T10:50:45.826Z,101153.22
2022-09-11T10:55:54.813Z,101163.00
2022-09-11T11:00:58.359Z,101151.84
2022-09-11T11:06:09.250Z,101153.72
2022-09-11T11:11:23.096Z,101158.38
2022-09-11T11:16:33.748Z,101168.34
2022-09-11T11:21:48.828Z,101166.63
2022-09-11T11:27:04.828Z,101161.66
2022-09-11T11:32:27.820Z,101158.72
2022-09-11T11:37:35.134Z,101154.66
2022-09-11T11:42:43.913Z,101161.88
2022-09-11T11:47:47.908Z,101162.63
2022-09-11T11:52:57.884Z,101171.19
2022-09-11T11:58:07.860Z,101163.44
2022-09-11T12:03:16.327Z,101162.22
2022-09-11T12:08:19.794Z,101156.25
2022-09-11T12:13:29.397Z,101162.81
2022-09-11T12:18:32.931Z,101165.25
2022-09-11T12:24:23.036Z,101161.72
2022-09-11T12:29:57.735Z,101156.41
2022-09-11T12:35:04.910Z,101149.38
2022-09-11T12:40:17.039Z,101147.03
2022-09-11T12:45:36.579Z,101142.44
2022-09-11T12:50:40.276Z,101143.13
2022-09-11T12:55:52.840Z,101125.16
2022-09-11T13:01:06.097Z,101130.97
2022-09-11T13:06:11.755Z,101125.53
2022-09-11T13:11:37.969Z,101118.38
2022-09-11T13:16:46.899Z,101117.81
2022-09-11T13:21:52.129Z,101112.50
2022-09-11T13:26:58.060Z,101117.81
2022-09-11T13:32:11.443Z,101113.03
2022-09-11T13:37:26.482Z,101118.75
2022-09-11T13:42:30.512Z,101125.41
2022-09-11T13:47:42.038Z,101118.47
2022-09-11T13:52:46.992Z,101099.34
2022-09-11T13:57:55.753Z,101102.06
2022-09-11T14:03:00.611Z,101106.44
2022-09-11T14:08:07.506Z,101110.00
2022-09-11T14:13:15.019Z,101097.03
2022-09-11T14:18:27.939Z,101103.97
2022-09-11T14:23:31.790Z,101096.22
2022-09-11T14:28:37.966Z,101085.38
2022-09-11T14:33:43.138Z,101089.44
2022-09-11T14:38:47.477Z,101089.63
2022-09-11T14:43:50.910Z,101087.09
2022-09-11T14:48:55.689Z,101095.72
2022-09-11T14:53:59.079Z,101096.28
2022-09-11T14:59:03.003Z,101097.44
2022-09-11T15:04:07.789Z,101100.53
2022-09-11T15:09:11.184Z,101095.78
2022-09-11T15:14:32.150Z,101091.22
2022-09-11T15:19:40.854Z,101090.31
2022-09-11T15:24:44.256Z,101080.03
2022-09-11T15:29:47.629Z,101078.72
2022-09-11T15:34:53.898Z,101070.13
2022-09-11T15:39:57.372Z,101064.03
2022-09-11T15:45:01.754Z,101059.72
2022-09-11T15:50:07.691Z,101053.44
2022-09-11T15:55:11.082Z,101061.25
2022-09-11T16:00:15.866Z,101057.28
2022-09-11T16:05:22.998Z,101056.66
2022-09-11T16:10:27.776Z,101051.72
2022-09-11T16:15:31.210Z,101051.13
2022-09-11T16:20:35.910Z,101053.41
2022-09-11T16:25:40.171Z,101049.09
2022-09-11T16:30:46.644Z,101048.50
2022-09-11T16:36:01.549Z,101046.28
2022-09-11T16:41:07.440Z,101044.59
2022-09-11T16:46:10.839Z,101041.59
2022-09-11T16:51:16.506Z,101048.31
2022-09-11T16:56:21.345Z,101043.69
2022-09-11T17:01:26.901Z,101036.22
2022-09-11T17:06:32.139Z,101037.41
2022-09-11T17:11:37.069Z,101027.06
2022-09-11T17:16:40.890Z,101027.22
2022-09-11T17:21:45.733Z,101036.31
2022-09-11T17:26:50.594Z,101035.06
2022-09-11T17:32:16.693Z,101034.25
2022-09-11T17:37:20.071Z,101038.50
2022-09-11T17:42:23.709Z,101040.50
2022-09-11T17:47:30.701Z,101037.41
2022-09-11T17:52:36.867Z,101044.13
2022-09-11T17:57:40.638Z,101045.78
2022-09-11T18:02:44.505Z,101054.66
2022-09-11T18:07:50.526Z,101061.53
2022-09-11T18:12:53.905Z,101068.63
2022-09-11T18:17:57.302Z,101065.69
2022-09-11T18:23:02.818Z,101065.13
2022-09-11T18:28:07.015Z,101071.22
2022-09-11T18:33:11.058Z,101076.59
2022-09-11T18:38:15.882Z,101077.63
2022-09-11T18:43:19.389Z,101074.25
2022-09-11T18:48:22.994Z,101069.19
2022-09-11T18:53:27.806Z,101074.03
2022-09-11T18:58:31.844Z,101068.28
2022-09-11T19:03:36.548Z,101072.47
2022-09-11T19:08:42.929Z,101082.72
2022-09-11T19:13:47.299Z,101085.53
2022-09-11T19:18:50.896Z,101097.66
2022-09-11T19:24:00.375Z,101096.34
2022-09-11T19:29:04.662Z,101096.31
2022-09-11T19:34:09.930Z,101103.72
2022-09-11T19:39:14.742Z,101099.19
2022-09-11T19:44:19.803Z,101102.66
2022-09-11T19:49:23.415Z,101103.59
2022-09-11T19:54:30.570Z,101113.31
2022-09-11T19:59:34.185Z,101119.63
2022-09-11T20:04:37.563Z,101130.44
2022-09-11T20:09:42.815Z,101131.38
2022-09-11T20:14:46.219Z,101120.41
2022-09-11T20:19:49.633Z,101127.84
2022-09-11T20:24:54.403Z,101129.44
2022-09-11T20:29:57.877Z,101125.97
2022-09-11T20:35:01.293Z,101129.66
2022-09-11T20:40:07.629Z,101121.34
2022-09-11T20:45:11.637Z,101123.91
2022-09-11T20:50:15.153Z,101120.31
2022-09-11T20:55:19.922Z,101114.56
2022-09-11T21:00:23.387Z,101117.63
2022-09-11T21:05:26.941Z,101106.16
2022-09-11T21:10:31.715Z,101120.13
2022-09-11T21:15:35.094Z,101107.91
2022-09-11T21:20:38.761Z,101115.09
2022-09-11T21:25:43.582Z,101111.16
2022-09-11T21:30:46.981Z,101108.53
2022-09-11T21:35:52.427Z,101105.84
2022-09-11T21:40:57.653Z,101113.03
2022-09-11T21:46:01.021Z,101111.06
2022-09-11T21:51:08.213Z,101111.34
2022-09-11T21:56:19.779Z,101104.91
2022-09-11T22:01:24.706Z,101100.41
2022-09-11T22:06:29.152Z,101106.34
2022-09-11T22:11:33.921Z,101099.59
2022-09-11T22:16:37.318Z,101093.81
2022-09-11T22:21:40.854Z,101095.81
2022-09-11T22:26:45.845Z,101095.66
2022-09-11T22:31:49.251Z,101093.38
2022-09-11T22:36:52.733Z,101082.25
2022-09-11T22:41:58.178Z,101087.31
2022-09-11T22:47:01.586Z,101085.50
2022-09-11T22:52:05.024Z,101081.41
2022-09-11T22:57:09.739Z,101090.53
2022-09-11T23:02:13.562Z,101100.28
2022-09-11T23:07:17.067Z,101093.50
2022-09-11T23:12:21.866Z,101091.94
2022-09-11T23:17:26.355Z,101093.09
2022-09-11T23:22:30.184Z,101088.59
2022-09-11T23:27:35.006Z,101086.06
2022-09-11T23:32:41.767Z,101086.03
2022-09-11T23:37:45.883Z,101094.75
2022-09-11T23:42:50.926Z,101087.41
2022-09-11T23:47:54.333Z,101089.50
2022-09-11T23:52:57.793Z,101087.41
2022-09-11T23:58:03.586Z,101085.16
